Platzwetter / Webcam

  • Aktuelles Bild
  • Verlauf
  • Verlauf
  • Verlauf
  • Verlauf
  • Verlauf
  • Verlauf
  • Verlauf
  • Verlauf
  • Verlauf
  • Verlauf
  • Verlauf
  • Verlauf
  • Verlauf
  • Verlauf
  • Verlauf
  • Verlauf
  • Verlauf

Flugwetter Linz

[Quelle: ADDS]
METAR
LOWL 300820Z 25011KT 9999 FEW022 BKN090 23/17 Q1016 NOSIG =
TAF
LOWL 300515Z 3006/0106 27007KT 9999 SCT040 SCT090 TX25/3012Z TN18/0100Z TEMPO 3010/0106 29012KT SHRA SCT040 FEW050CB BKN090 PROB40 TEMPO 3011/3022 30015G25KT 3000 TSRA BKN030 FEW035CB =

Flugwetter Salzburg

[Quelle: ADDS]
METAR
LOWS 300820Z 33010KT 270V010 9999 FEW030 SCT065 BKN080 22/15 Q1018 NOSIG =
TAF
LOWS 300515Z 3006/0106 15006KT 9999 FEW060 SCT120 TX22/3009Z TN16/0105Z BECMG 3007/3009 30010KT SCT060 BKN080 TEMPO 3010/3018 33010G20KT SHRA SCT050TCU BKN070 PROB40 TEMPO 3010/3016 32020G30KT 4000 TSRA SCT050CB BKN050 BECMG 3016/3018 15005KT TEMPO 3018/0102 -SHRA TEMPO 0102/0106 SHRA SCT015 BKN025 =

Fliegen lernen

Die Fliegerschule der WMW...

Termine & Events

Alle Termine anzeigen...

Aktuelles & News

+++ Aktuelle Spritpreise (11.05.2016): | Jet A-1 € 1,292 | Super Plus 98 ETBE € 1,370 | Avgas 100LL € 1,944 | +++